KMER

Castle Airport

Atwater, California, USA
KMER 251720Z 2518/2618 34005KT P6SM SKC
Issued Valid From Valid To
Sep-25 @ 17:20 UTC
(2 hours ago)
Sep-25 @ 18:00 UTC
(an hour ago)
Sep-26 @ 18:00 UTC
(in 23 hours)
Sep-25 @ 18:00 to Sep-26 @ 18:00
KMER 251720Z 2518/2618 34005KT P6SM SKC
Wind Visibility Clouds
340° at 5 knots Greater than 6 miles
  • Clear skies
KMER 251720Z 2518/2618 34005KT P6SM SKC
Issued Sep-25 @ 17:20 UTC
(2 hours ago)
Valid From Sep-25 @ 18:00 UTC
(an hour ago)
Valid To Sep-26 @ 18:00 UTC
(in 23 hours)
Sep-25 @ 18:00 - Sep-26 @ 18:00
Wind Visibility
340° at 5 knots Greater than 6 miles
Clouds
  • Clear skies